createdAt,value
2023-01-04T00:00:07.683Z,85.31
2023-01-04T00:01:07.600Z,85.31
2023-01-04T00:02:07.539Z,84.97
2023-01-04T00:03:07.647Z,84.57
2023-01-04T00:04:07.583Z,84.57
2023-01-04T00:05:07.524Z,84.67
2023-01-04T00:06:07.461Z,84.67
2023-01-04T00:07:07.438Z,84.07
2023-01-04T00:08:07.455Z,84.27
2023-01-04T00:09:07.468Z,84.47
2023-01-04T00:10:07.462Z,84.37
2023-01-04T00:11:07.459Z,84.77
2023-01-04T00:12:07.466Z,84.67
2023-01-04T00:13:07.383Z,84.47
2023-01-04T00:14:07.376Z,84.77
2023-01-04T00:15:07.387Z,84.77
2023-01-04T00:16:08.368Z,85.07
2023-01-04T00:17:07.375Z,84.87
2023-01-04T00:18:07.395Z,84.77
2023-01-04T00:19:07.316Z,84.57
2023-01-04T00:20:07.332Z,84.81
2023-01-04T00:21:07.327Z,85.31
2023-01-04T00:22:07.327Z,85.51
2023-01-04T00:23:07.252Z,85.81
2023-01-04T00:24:07.248Z,85.81
2023-01-04T00:25:07.249Z,86.11
2023-01-04T00:26:07.265Z,86.21
2023-01-04T00:27:07.257Z,86.01
2023-01-04T00:28:07.241Z,86.31
2023-01-04T00:29:07.254Z,86.51
2023-01-04T00:30:07.214Z,86.21
2023-01-04T00:31:07.300Z,85.91
2023-01-04T00:32:07.132Z,86.01
2023-01-04T00:33:07.192Z,85.71
2023-01-04T00:34:07.428Z,85.81
2023-01-04T00:35:07.155Z,86.11
2023-01-04T00:36:07.127Z,86.21
2023-01-04T00:37:07.938Z,86.01
2023-01-04T00:38:07.144Z,86.25
2023-01-04T00:39:07.906Z,86.31
2023-01-04T00:40:07.136Z,86.11
2023-01-04T00:41:08.076Z,85.91
2023-01-04T00:42:07.057Z,85.81
2023-01-04T00:43:07.088Z,84.71
2023-01-04T00:44:07.065Z,85.25
2023-01-04T00:45:07.047Z,85.35
2023-01-04T00:46:07.186Z,85.85
2023-01-04T00:47:07.085Z,85.55
2023-01-04T00:48:06.972Z,85.45
2023-01-04T00:49:07.205Z,84.95
2023-01-04T00:50:06.975Z,84.59
2023-01-04T00:51:06.986Z,84.99
2023-01-04T00:52:06.989Z,85.39
2023-01-04T00:53:06.993Z,84.69
2023-01-04T00:54:07.031Z,85.19
2023-01-04T00:55:06.948Z,85.19
2023-01-04T00:56:07.731Z,84.69
2023-01-04T00:57:06.968Z,84.39
2023-01-04T00:58:06.964Z,84.99
2023-01-04T00:59:06.866Z,84.89
2023-01-04T01:00:06.898Z,84.79
2023-01-04T01:01:06.970Z,84.59
2023-01-04T01:02:06.967Z,83.99
2023-01-04T01:03:07.092Z,84.89
2023-01-04T01:04:07.005Z,84.99
2023-01-04T01:05:06.871Z,85.19
2023-01-04T01:06:06.851Z,84.39
2023-01-04T01:07:06.888Z,84.59
2023-01-04T01:08:06.816Z,84.39
2023-01-04T01:09:06.828Z,84.49
2023-01-04T01:10:06.828Z,84.39
2023-01-04T01:11:06.828Z,84.69
2023-01-04T01:12:06.785Z,84.49
2023-01-04T01:13:06.792Z,84.49
2023-01-04T01:14:06.795Z,84.49
2023-01-04T01:15:06.732Z,84.49
2023-01-04T01:16:06.789Z,84.59
2023-01-04T01:17:06.900Z,84.39
2023-01-04T01:18:06.698Z,84.39
2023-01-04T01:19:06.626Z,84.59
2023-01-04T01:20:06.636Z,84.69
2023-01-04T01:21:06.677Z,84.49
2023-01-04T01:22:06.729Z,84.49
2023-01-04T01:23:06.763Z,84.49
2023-01-04T01:24:06.693Z,84.09
2023-01-04T01:25:06.724Z,83.79
2023-01-04T01:26:06.656Z,84.09
2023-01-04T01:27:06.680Z,84.09
2023-01-04T01:28:06.684Z,83.59
2023-01-04T01:29:06.884Z,84.39
2023-01-04T01:30:06.657Z,84.29
2023-01-04T01:31:08.713Z,84.19
2023-01-04T01:32:06.604Z,84.29
2023-01-04T01:33:06.605Z,84.33
2023-01-04T01:34:06.602Z,84.53
2023-01-04T01:35:06.729Z,84.49
2023-01-04T01:36:06.511Z,84.49
2023-01-04T01:37:06.523Z,84.59
2023-01-04T01:38:06.573Z,84.19
2023-01-04T01:39:06.581Z,84.49
2023-01-04T01:40:06.539Z,84.39
2023-01-04T01:41:06.896Z,84.59
2023-01-04T01:42:06.393Z,84.49
2023-01-04T01:43:06.440Z,84.19
2023-01-04T01:44:06.488Z,83.59
2023-01-04T01:45:06.487Z,84.19
2023-01-04T01:46:06.394Z,83.69
2023-01-04T01:47:06.508Z,84.13
2023-01-04T01:48:06.419Z,83.63
2023-01-04T01:49:06.546Z,84.23
2023-01-04T01:50:06.419Z,83.63
2023-01-04T01:51:06.360Z,83.83
2023-01-04T01:52:06.333Z,83.83
2023-01-04T01:53:06.267Z,84.03
2023-01-04T01:54:06.341Z,84.03
2023-01-04T01:55:06.335Z,84.39
2023-01-04T01:56:06.391Z,83.73
2023-01-04T01:57:06.335Z,83.59
2023-01-04T01:58:06.401Z,83.39
2023-01-04T01:59:06.303Z,83.63
2023-01-04T02:00:06.218Z,83.79
2023-01-04T02:01:06.339Z,83.69
2023-01-04T02:02:06.547Z,83.39
2023-01-04T02:03:06.421Z,83.29
2023-01-04T02:04:06.386Z,83.19
2023-01-04T02:05:06.245Z,83.39
2023-01-04T02:06:06.252Z,83.59
2023-01-04T02:07:06.251Z,83.39
2023-01-04T02:08:06.131Z,83.59
2023-01-04T02:09:06.107Z,83.89
2023-01-04T02:10:06.687Z,83.69
2023-01-04T02:11:06.081Z,83.59
2023-01-04T02:12:06.079Z,83.39
2023-01-04T02:13:06.096Z,83.29
2023-01-04T02:14:06.089Z,82.99
2023-01-04T02:15:06.102Z,82.99
2023-01-04T02:16:06.095Z,83.05
2023-01-04T02:17:06.127Z,82.95
2023-01-04T02:18:06.037Z,82.85
2023-01-04T02:19:06.026Z,82.35
2023-01-04T02:20:06.005Z,82.45
2023-01-04T02:21:06.036Z,82.35
2023-01-04T02:22:05.948Z,82.35
2023-01-04T02:23:05.948Z,82.45
2023-01-04T02:24:06.023Z,82.35
2023-01-04T02:25:05.931Z,82.55
2023-01-04T02:26:05.965Z,82.59
2023-01-04T02:27:05.947Z,82.89
2023-01-04T02:28:05.887Z,82.89
2023-01-04T02:29:05.941Z,82.69
2023-01-04T02:30:05.912Z,83.09
2023-01-04T02:31:06.044Z,83.19
2023-01-04T02:32:05.877Z,83.09
2023-01-04T02:33:05.893Z,83.19
2023-01-04T02:34:05.868Z,82.59
2023-01-04T02:35:05.924Z,82.79
2023-01-04T02:36:05.933Z,82.59
2023-01-04T02:37:05.866Z,82.79
2023-01-04T02:38:05.876Z,82.49
2023-01-04T02:39:05.849Z,82.29
2023-01-04T02:40:05.875Z,82.49
2023-01-04T02:41:06.181Z,82.79
2023-01-04T02:42:05.828Z,82.79
2023-01-04T02:43:09.543Z,82.79
2023-01-04T02:44:05.746Z,82.79
2023-01-04T02:45:05.766Z,82.89
2023-01-04T02:46:05.696Z,82.59
2023-01-04T02:47:05.926Z,82.39
2023-01-04T02:48:05.781Z,82.69
2023-01-04T02:49:05.686Z,82.79
2023-01-04T02:50:05.939Z,82.39
2023-01-04T02:51:05.682Z,82.29
2023-01-04T02:52:05.690Z,82.35
2023-01-04T02:53:06.163Z,82.35
2023-01-04T02:54:05.604Z,82.35
2023-01-04T02:55:05.657Z,82.35
2023-01-04T02:56:05.662Z,81.95
2023-01-04T02:57:06.280Z,81.75
2023-01-04T02:58:05.669Z,81.95
2023-01-04T02:59:06.551Z,81.75
2023-01-04T03:00:05.588Z,82.15
2023-01-04T03:01:05.544Z,82.05
2023-01-04T03:02:05.715Z,82.15
2023-01-04T03:03:05.877Z,81.95
2023-01-04T03:04:05.674Z,81.75
2023-01-04T03:05:05.615Z,81.85
2023-01-04T03:06:05.516Z,81.95
2023-01-04T03:07:05.485Z,81.92
2023-01-04T03:08:05.636Z,82.01
2023-01-04T03:09:05.539Z,82.01
2023-01-04T03:10:05.650Z,81.15
2023-01-04T03:11:07.298Z,81.65
2023-01-04T03:12:05.457Z,81.85
2023-01-04T03:13:05.475Z,82.15
2023-01-04T03:14:30.743Z,82.05
2023-01-04T03:15:05.456Z,82.05
2023-01-04T03:16:05.520Z,81.95
2023-01-04T03:17:05.718Z,81.85
2023-01-04T03:18:05.399Z,81.95
2023-01-04T03:19:05.403Z,81.95
2023-01-04T03:20:05.510Z,81.85
2023-01-04T03:21:05.383Z,81.85
2023-01-04T03:22:05.399Z,81.85
2023-01-04T03:23:05.542Z,81.85
2023-01-04T03:24:05.304Z,81.85
2023-01-04T03:25:05.310Z,81.85
2023-01-04T03:26:05.558Z,81.75
2023-01-04T03:27:05.327Z,81.45
2023-01-04T03:28:05.369Z,81.56
2023-01-04T03:29:05.271Z,80.95
2023-01-04T03:30:05.682Z,81.15
2023-01-04T03:31:05.269Z,81.25
2023-01-04T03:32:05.288Z,80.95
2023-01-04T03:33:05.261Z,81.15
2023-01-04T03:34:05.302Z,81.35
2023-01-04T03:35:05.280Z,81.35
2023-01-04T03:36:05.176Z,81.25
2023-01-04T03:37:05.181Z,81.15
2023-01-04T03:38:05.230Z,81.12
2023-01-04T03:39:05.229Z,81.01
2023-01-04T03:40:05.256Z,81.21
2023-01-04T03:41:05.625Z,81.12
2023-01-04T03:42:05.154Z,81.01
2023-01-04T03:43:05.126Z,80.91
2023-01-04T03:44:05.182Z,80.91
2023-01-04T03:45:09.977Z,81.01
2023-01-04T03:46:05.161Z,80.91
2023-01-04T03:47:05.243Z,80.71
2023-01-04T03:48:05.032Z,80.51
2023-01-04T03:49:05.103Z,80.51
2023-01-04T03:50:05.047Z,80.41
2023-01-04T03:51:05.870Z,80.71
2023-01-04T03:52:05.049Z,80.51
2023-01-04T03:53:05.063Z,80.62
2023-01-04T03:54:04.972Z,80.62
2023-01-04T03:55:04.979Z,80.62
2023-01-04T03:56:05.079Z,80.71
2023-01-04T03:57:05.030Z,80.41
2023-01-04T03:58:04.955Z,80.51
2023-01-04T03:59:04.997Z,80.91
2023-01-04T04:00:04.966Z,80.71
2023-01-04T04:01:05.000Z,81.01
2023-01-04T04:02:05.053Z,81.01
2023-01-04T04:03:04.965Z,80.71
2023-01-04T04:04:05.075Z,80.82
2023-01-04T04:05:04.978Z,80.32
2023-01-04T04:06:05.568Z,80.21
2023-01-04T04:07:04.851Z,80.95
2023-01-04T04:08:04.814Z,81.05
2023-01-04T04:09:05.892Z,81.05
2023-01-04T04:10:04.819Z,80.45
2023-01-04T04:11:04.815Z,80.55
2023-01-04T04:12:04.834Z,80.85
2023-01-04T04:13:04.786Z,80.76
2023-01-04T04:14:04.742Z,80.95
2023-01-04T04:15:04.737Z,80.76
2023-01-04T04:16:04.884Z,80.85
2023-01-04T04:17:04.738Z,81.05
2023-01-04T04:18:04.821Z,81.15
2023-01-04T04:19:08.776Z,81.05
2023-01-04T04:20:04.682Z,81.15
2023-01-04T04:21:04.687Z,80.65
2023-01-04T04:22:04.691Z,80.85
2023-01-04T04:23:04.755Z,80.95
2023-01-04T04:24:04.725Z,80.85
2023-01-04T04:25:04.669Z,81.05
2023-01-04T04:26:04.714Z,80.76
2023-01-04T04:27:04.678Z,80.95
2023-01-04T04:28:04.633Z,81.15
2023-01-04T04:29:04.681Z,81.15
2023-01-04T04:30:05.616Z,81.01
2023-01-04T04:31:04.604Z,80.91
2023-01-04T04:32:04.644Z,80.82
2023-01-04T04:33:04.614Z,81.01
2023-01-04T04:34:04.615Z,81.12
2023-01-04T04:35:04.538Z,81.12
2023-01-04T04:36:04.684Z,81.21
2023-01-04T04:37:04.482Z,81.25
2023-01-04T04:38:04.495Z,81.56
2023-01-04T04:39:04.550Z,81.56
2023-01-04T04:40:04.634Z,81.95
2023-01-04T04:41:04.563Z,82.05
2023-01-04T04:42:05.131Z,81.85
2023-01-04T04:43:04.475Z,81.75
2023-01-04T04:44:04.468Z,81.56
2023-01-04T04:45:04.439Z,81.75
2023-01-04T04:46:04.681Z,81.95
2023-01-04T04:47:05.335Z,82.05
2023-01-04T04:48:04.521Z,81.85
2023-01-04T04:49:04.410Z,81.99
2023-01-04T04:50:04.439Z,82.39
2023-01-04T04:51:04.399Z,82.29
2023-01-04T04:52:04.383Z,82.19
2023-01-04T04:53:04.410Z,82.39
2023-01-04T04:54:04.404Z,82.59
2023-01-04T04:55:04.319Z,82.59
2023-01-04T04:56:04.323Z,82.59
2023-01-04T04:57:04.288Z,82.79
2023-01-04T04:58:04.341Z,82.69
2023-01-04T04:59:04.376Z,82.99
2023-01-04T05:00:05.240Z,83.09
2023-01-04T05:01:04.388Z,83.09
2023-01-04T05:02:04.451Z,82.99
2023-01-04T05:03:04.415Z,82.89
2023-01-04T05:04:04.243Z,82.89
2023-01-04T05:05:04.299Z,82.39
2023-01-04T05:06:04.225Z,82.19
2023-01-04T05:07:10.647Z,82.39
2023-01-04T05:08:04.207Z,82.69
2023-01-04T05:09:04.142Z,82.59
2023-01-04T05:10:04.156Z,82.39
2023-01-04T05:11:04.236Z,82.19
2023-01-04T05:12:04.171Z,82.59
2023-01-04T05:13:04.100Z,82.39
2023-01-04T05:14:04.133Z,82.49
2023-01-04T05:15:04.080Z,82.69
2023-01-04T05:16:04.130Z,82.79
2023-01-04T05:17:04.207Z,82.59
2023-01-04T05:18:04.170Z,82.59
2023-01-04T05:19:04.059Z,82.99
2023-01-04T05:20:04.042Z,82.69
2023-01-04T05:21:04.060Z,82.49
2023-01-04T05:22:04.025Z,82.79
2023-01-04T05:23:04.027Z,83.19
2023-01-04T05:24:04.036Z,82.89
2023-01-04T05:25:04.038Z,82.99
2023-01-04T05:26:03.946Z,83.19
2023-01-04T05:27:04.028Z,82.99
2023-01-04T05:28:04.642Z,82.79
2023-01-04T05:29:03.972Z,82.59
2023-01-04T05:30:03.903Z,82.39
2023-01-04T05:31:03.972Z,82.39
2023-01-04T05:32:03.934Z,82.39
2023-01-04T05:33:03.895Z,82.49
2023-01-04T05:34:03.940Z,82.09
2023-01-04T05:35:03.873Z,81.99
2023-01-04T05:36:04.139Z,82.29
2023-01-04T05:37:03.949Z,81.99
2023-01-04T05:38:03.859Z,82.49
2023-01-04T05:39:03.860Z,82.69
2023-01-04T05:40:03.832Z,82.29
2023-01-04T05:41:03.807Z,82.33
2023-01-04T05:42:03.874Z,82.43
2023-01-04T05:43:03.863Z,82.43
2023-01-04T05:44:03.783Z,83.13
2023-01-04T05:45:03.870Z,82.83
2023-01-04T05:46:03.848Z,82.79
2023-01-04T05:47:03.928Z,83.09
2023-01-04T05:48:03.889Z,82.79
2023-01-04T05:49:03.767Z,82.69
2023-01-04T05:50:03.799Z,82.69
2023-01-04T05:51:03.904Z,82.49
2023-01-04T05:52:03.752Z,82.49
2023-01-04T05:53:04.643Z,82.93
2023-01-04T05:54:03.767Z,83.03
2023-01-04T05:55:03.984Z,82.83
2023-01-04T05:56:03.677Z,82.79
2023-01-04T05:57:03.751Z,82.79
2023-01-04T05:58:03.621Z,82.63
2023-01-04T05:59:03.656Z,82.83
2023-01-04T06:00:03.637Z,82.83
2023-01-04T06:01:03.612Z,82.83
2023-01-04T06:02:03.813Z,83.13
2023-01-04T06:03:03.757Z,83.23
2023-01-04T06:04:03.627Z,83.13
2023-01-04T06:05:03.593Z,82.63
2023-01-04T06:06:04.161Z,82.43
2023-01-04T06:07:04.157Z,82.93
2023-01-04T06:08:03.636Z,83.03
2023-01-04T06:09:03.553Z,82.73
2023-01-04T06:10:03.519Z,83.23
2023-01-04T06:11:03.529Z,83.13
2023-01-04T06:12:03.559Z,83.13
2023-01-04T06:13:03.484Z,83.33
2023-01-04T06:14:03.692Z,83.77
2023-01-04T06:15:03.529Z,83.87
2023-01-04T06:16:03.468Z,84.07
2023-01-04T06:17:03.503Z,83.87
2023-01-04T06:18:05.459Z,83.87
2023-01-04T06:19:03.625Z,83.87
2023-01-04T06:20:03.428Z,84.07
2023-01-04T06:21:03.552Z,83.97
2023-01-04T06:22:03.561Z,84.17
2023-01-04T06:23:03.552Z,83.87
2023-01-04T06:24:03.350Z,83.87
2023-01-04T06:25:03.566Z,83.47
2023-01-04T06:26:03.472Z,84.03
2023-01-04T06:27:03.332Z,83.97
2023-01-04T06:28:03.463Z,83.77
2023-01-04T06:29:04.161Z,84.07
2023-01-04T06:30:04.188Z,84.07
2023-01-04T06:31:03.932Z,83.97
2023-01-04T06:32:03.316Z,83.97
2023-01-04T06:33:03.292Z,84.07
2023-01-04T06:34:03.301Z,84.17
2023-01-04T06:35:03.353Z,84.17
2023-01-04T06:36:03.255Z,84.17
2023-01-04T06:37:03.256Z,83.97
2023-01-04T06:38:03.265Z,83.87
2023-01-04T06:39:03.261Z,83.77
2023-01-04T06:40:03.268Z,83.87
2023-01-04T06:41:03.181Z,84.17
2023-01-04T06:42:06.897Z,84.27
2023-01-04T06:43:03.193Z,84.07
2023-01-04T06:44:03.185Z,83.77
2023-01-04T06:45:03.223Z,83.97
2023-01-04T06:46:03.299Z,83.97
2023-01-04T06:47:03.223Z,83.67
2023-01-04T06:48:08.779Z,83.87
2023-01-04T06:49:03.123Z,83.97
2023-01-04T06:50:03.233Z,83.77
2023-01-04T06:51:03.132Z,83.67
2023-01-04T06:52:03.146Z,83.87
2023-01-04T06:53:03.769Z,83.97
2023-01-04T06:54:03.021Z,83.97
2023-01-04T06:55:03.047Z,83.97
2023-01-04T06:56:03.028Z,84.11
2023-01-04T06:57:03.074Z,84.01
2023-01-04T06:58:03.356Z,83.87
2023-01-04T06:59:03.095Z,84.07
2023-01-04T07:00:02.981Z,83.97
2023-01-04T07:01:03.015Z,83.77
2023-01-04T07:02:03.082Z,84.07
2023-01-04T07:03:13.341Z,84.07
2023-01-04T07:04:03.056Z,83.77
2023-01-04T07:05:03.045Z,83.97
2023-01-04T07:06:02.895Z,83.77
2023-01-04T07:07:02.889Z,83.77
2023-01-04T07:08:07.989Z,83.87
2023-01-04T07:09:02.943Z,83.97
2023-01-04T07:10:09.096Z,84.21
2023-01-04T07:11:02.925Z,83.97
2023-01-04T07:12:02.849Z,83.71
2023-01-04T07:13:02.886Z,83.91
2023-01-04T07:14:02.868Z,84.11
2023-01-04T07:15:02.810Z,84.01
2023-01-04T07:16:03.273Z,84.11
2023-01-04T07:17:02.781Z,84.21
2023-01-04T07:18:02.801Z,84.01
2023-01-04T07:19:02.774Z,84.01
2023-01-04T07:20:02.809Z,84.07
2023-01-04T07:21:03.243Z,83.81
2023-01-04T07:22:02.813Z,83.91
2023-01-04T07:23:02.736Z,83.91
2023-01-04T07:24:02.745Z,83.71
2023-01-04T07:25:02.736Z,83.81
2023-01-04T07:26:02.744Z,83.81
2023-01-04T07:27:03.278Z,83.81
2023-01-04T07:28:02.755Z,83.81
2023-01-04T07:29:02.692Z,83.71
2023-01-04T07:30:02.613Z,83.67
2023-01-04T07:31:02.665Z,83.51
2023-01-04T07:32:02.683Z,83.57
2023-01-04T07:33:02.724Z,83.61
2023-01-04T07:34:02.710Z,83.71
2023-01-04T07:35:02.692Z,83.71
2023-01-04T07:36:02.540Z,83.71
2023-01-04T07:37:02.610Z,83.91
2023-01-04T07:38:02.545Z,83.81
2023-01-04T07:39:02.752Z,83.71
2023-01-04T07:40:02.566Z,83.91
2023-01-04T07:41:02.630Z,83.61
2023-01-04T07:42:02.543Z,83.61
2023-01-04T07:43:02.486Z,83.67
2023-01-04T07:44:02.516Z,83.67
2023-01-04T07:45:02.587Z,83.47
2023-01-04T07:46:02.554Z,83.47
2023-01-04T07:47:02.597Z,83.17
2023-01-04T07:48:02.523Z,83.07
2023-01-04T07:49:02.503Z,83.17
2023-01-04T07:50:02.420Z,83.07
2023-01-04T07:51:02.433Z,83.07
2023-01-04T07:52:02.460Z,82.97
2023-01-04T07:53:02.823Z,82.77
2023-01-04T07:54:02.743Z,82.87
2023-01-04T07:55:02.420Z,83.07
2023-01-04T07:56:02.543Z,82.77
2023-01-04T07:57:02.453Z,82.87
2023-01-04T07:58:02.334Z,82.87
2023-01-04T07:59:02.383Z,82.87
2023-01-04T08:00:02.378Z,82.87
2023-01-04T08:01:02.480Z,82.77
2023-01-04T08:02:02.489Z,82.47
2023-01-04T08:03:02.549Z,82.37
2023-01-04T08:04:02.464Z,82.47
2023-01-04T08:05:02.353Z,82.37
2023-01-04T08:06:02.314Z,82.47
2023-01-04T08:07:02.341Z,82.77
2023-01-04T08:08:02.314Z,82.57
2023-01-04T08:09:02.332Z,82.47
2023-01-04T08:10:02.241Z,82.67
2023-01-04T08:11:02.244Z,82.67
2023-01-04T08:12:02.216Z,82.67
2023-01-04T08:13:02.171Z,82.67
2023-01-04T08:14:02.149Z,82.57
2023-01-04T08:15:02.686Z,82.57
2023-01-04T08:16:02.229Z,82.37
2023-01-04T08:17:02.196Z,82.37
2023-01-04T08:18:02.688Z,82.37
2023-01-04T08:19:02.071Z,82.57
2023-01-04T08:20:02.013Z,82.57
2023-01-04T08:21:02.018Z,82.37
2023-01-04T08:22:02.079Z,82.97
2023-01-04T08:23:02.458Z,82.77
2023-01-04T08:24:02.062Z,82.57
2023-01-04T08:25:02.042Z,82.57
2023-01-04T08:26:02.153Z,82.27
2023-01-04T08:27:02.232Z,82.27
2023-01-04T08:28:02.025Z,82.67
2023-01-04T08:29:02.259Z,82.57
2023-01-04T08:30:01.934Z,82.57
2023-01-04T08:31:02.003Z,82.47
2023-01-04T08:32:01.887Z,82.47
2023-01-04T08:33:01.975Z,82.67
2023-01-04T08:34:02.075Z,82.77
2023-01-04T08:35:01.983Z,82.67
2023-01-04T08:36:01.877Z,82.87
2023-01-04T08:37:01.926Z,82.77
2023-01-04T08:38:28.380Z,82.67
2023-01-04T08:39:02.371Z,83.17
2023-01-04T08:40:01.924Z,83.07
2023-01-04T08:41:23.121Z,83.17
2023-01-04T08:42:14.562Z,82.97
2023-01-04T08:43:01.828Z,82.87
2023-01-04T08:44:01.858Z,82.67
2023-01-04T08:45:02.231Z,82.77
2023-01-04T08:46:01.858Z,82.97
2023-01-04T08:47:03.833Z,82.87
2023-01-04T08:48:01.748Z,82.97
2023-01-04T08:49:01.762Z,83.37
2023-01-04T08:50:08.150Z,83.17
2023-01-04T08:51:01.748Z,83.17
2023-01-04T08:52:01.788Z,83.17
2023-01-04T08:53:02.305Z,83.07
2023-01-04T08:54:01.715Z,82.97
2023-01-04T08:55:05.544Z,82.87
2023-01-04T08:56:01.716Z,83.37
2023-01-04T08:57:01.628Z,83.37
2023-01-04T08:58:01.637Z,83.47
2023-01-04T08:59:01.731Z,83.27
2023-01-04T09:00:01.615Z,83.27
2023-01-04T09:01:01.616Z,83.17
2023-01-04T09:02:05.753Z,83.67
2023-01-04T09:03:01.960Z,83.17
2023-01-04T09:04:01.655Z,83.47
2023-01-04T09:05:01.705Z,83.27
2023-01-04T09:06:01.587Z,83.67
2023-01-04T09:07:01.533Z,83.57
2023-01-04T09:08:01.501Z,83.57
2023-01-04T09:09:01.505Z,83.37
2023-01-04T09:10:01.503Z,83.47
2023-01-04T09:11:01.509Z,83.67
2023-01-04T09:12:01.478Z,83.67
2023-01-04T09:13:01.527Z,83.57
2023-01-04T09:14:09.641Z,83.37
2023-01-04T09:15:01.449Z,83.57
2023-01-04T09:16:01.569Z,83.77
2023-01-04T09:17:01.464Z,83.67
2023-01-04T09:19:01.466Z,83.47
2023-01-04T09:20:01.367Z,83.47
2023-01-04T09:21:01.429Z,83.47
2023-01-04T09:22:01.430Z,83.67
2023-01-04T09:23:01.389Z,83.67
2023-01-04T09:24:01.350Z,83.83
2023-01-04T09:25:01.350Z,83.63
2023-01-04T09:26:07.327Z,83.43
2023-01-04T09:27:01.313Z,83.63
2023-01-04T09:28:01.322Z,83.43
2023-01-04T09:29:01.365Z,83.43
2023-01-04T09:30:01.292Z,83.43
2023-01-04T09:31:01.386Z,83.73
2023-01-04T09:32:01.429Z,83.63
2023-01-04T09:33:01.251Z,83.43
2023-01-04T09:34:14.055Z,83.43
2023-01-04T09:35:01.223Z,83.53
2023-01-04T09:36:01.222Z,83.63
2023-01-04T09:37:01.178Z,83.23
2023-01-04T09:38:01.215Z,83.43
2023-01-04T09:39:01.235Z,83.63
2023-01-04T09:40:01.157Z,83.53
2023-01-04T09:41:01.223Z,83.43
2023-01-04T09:42:01.259Z,83.23
2023-01-04T09:43:20.584Z,83.33
2023-01-04T09:44:01.181Z,83.43
2023-01-04T09:45:22.972Z,83.33
2023-01-04T09:46:01.225Z,83.23
2023-01-04T09:47:01.266Z,83.23
2023-01-04T09:48:01.193Z,83.19
2023-01-04T09:49:01.108Z,82.69
2023-01-04T09:50:01.057Z,82.69
2023-01-04T09:51:01.357Z,82.69
2023-01-04T09:52:01.053Z,82.89
2023-01-04T09:53:01.095Z,82.69
2023-01-04T09:54:01.049Z,82.29
2023-01-04T09:55:04.801Z,82.59
2023-01-04T09:56:00.977Z,82.69
2023-01-04T09:57:01.051Z,82.79
2023-01-04T09:58:01.069Z,82.29
2023-01-04T09:59:01.024Z,82.59
2023-01-04T10:00:00.963Z,82.79
2023-01-04T10:01:00.996Z,82.79
2023-01-04T10:02:01.154Z,82.39
2023-01-04T10:03:01.044Z,82.49
2023-01-04T10:04:00.996Z,82.69
2023-01-04T10:05:00.932Z,82.69
2023-01-04T10:06:01.012Z,82.69
2023-01-04T10:07:04.993Z,82.89
2023-01-04T10:08:00.936Z,83.09
2023-01-04T10:09:00.868Z,82.89
2023-01-04T10:10:00.897Z,82.79
2023-01-04T10:11:00.881Z,82.85
2023-01-04T10:12:00.911Z,82.25
2023-01-04T10:13:00.872Z,82.35
2023-01-04T10:14:00.825Z,82.35
2023-01-04T10:15:00.861Z,82.55
2023-01-04T10:16:00.894Z,82.45
2023-01-04T10:17:12.816Z,82.45
2023-01-04T10:19:43.422Z,82.45
2023-01-04T10:21:29.553Z,82.65
2023-01-04T10:21:38.068Z,82.49
2023-01-04T10:22:00.844Z,82.89
2023-01-04T10:23:00.750Z,82.69
2023-01-04T10:24:00.721Z,82.59
2023-01-04T10:25:00.728Z,82.39
2023-01-04T10:26:00.747Z,82.59
2023-01-04T10:27:00.743Z,82.49
2023-01-04T10:28:00.751Z,82.55
2023-01-04T10:29:00.784Z,82.25
2023-01-04T10:30:00.668Z,82.09
2023-01-04T10:31:00.844Z,82.29
2023-01-04T10:32:00.700Z,82.39
2023-01-04T10:33:01.499Z,82.95
2023-01-04T10:34:00.602Z,82.55
2023-01-04T10:35:00.604Z,82.75
2023-01-04T10:36:00.555Z,82.05
2023-01-04T10:37:00.616Z,81.85
2023-01-04T10:38:00.765Z,82.11
2023-01-04T10:39:00.613Z,81.61
2023-01-04T10:40:00.569Z,81.81
2023-01-04T10:41:00.532Z,81.37
2023-01-04T10:42:00.491Z,81.27
2023-01-04T10:43:00.563Z,80.38
2023-01-04T10:44:11.507Z,79.97
2023-01-04T10:45:05.062Z,80.38
2023-01-04T10:46:00.603Z,80.27
2023-01-04T10:47:00.701Z,80.14
2023-01-04T10:48:00.409Z,80.14
2023-01-04T10:49:00.424Z,79.68
2023-01-04T10:50:00.434Z,80.58
2023-01-04T10:51:07.332Z,79.68
2023-01-04T10:52:00.449Z,79.38
2023-01-04T10:53:00.355Z,79.68
2023-01-04T10:54:00.359Z,80.08
2023-01-04T10:55:00.369Z,80.27
2023-01-04T10:56:23.768Z,80.11
2023-01-04T10:57:05.141Z,80.41
2023-01-04T10:58:00.392Z,80.91
2023-01-04T10:59:00.369Z,80.68
2023-01-04T11:00:00.405Z,80.77
2023-01-04T11:01:00.427Z,80.47
2023-01-04T11:02:00.538Z,80.38
2023-01-04T11:03:06.512Z,80.18
2023-01-04T11:04:00.290Z,80.58
2023-01-04T11:05:00.229Z,79.97
2023-01-04T11:06:00.245Z,80.47
2023-01-04T11:07:00.229Z,80.58
2023-01-04T11:08:00.236Z,80.77
2023-01-04T11:09:00.223Z,80.88
2023-01-04T11:10:00.176Z,80.58
2023-01-04T11:11:00.224Z,80.58
2023-01-04T11:12:00.161Z,79.78
2023-01-04T11:13:00.169Z,79.78
2023-01-04T11:14:00.203Z,80.18
2023-01-04T11:15:00.197Z,80.27
2023-01-04T11:16:00.342Z,80.08
2023-01-04T11:17:00.260Z,80.51
2023-01-04T11:18:00.108Z,80.91
2023-01-04T11:19:00.131Z,80.88
2023-01-04T11:20:00.178Z,80.68
2023-01-04T11:21:00.042Z,80.38
2023-01-04T11:22:00.044Z,80.58
2023-01-04T11:23:00.204Z,80.77
2023-01-04T11:24:21.923Z,80.64
2023-01-04T11:25:33.959Z,79.74
2023-01-04T11:26:00.082Z,79.14
2023-01-04T11:27:00.021Z,79.64
2023-01-04T11:28:00.095Z,79.74
2023-01-04T11:29:00.039Z,79.84
2023-01-04T11:30:00.093Z,79.70
2023-01-04T11:30:59.994Z,79.40
2023-01-04T11:32:00.208Z,79.40
2023-01-04T11:33:00.012Z,79.40
2023-01-04T11:33:59.969Z,79.50
2023-01-04T11:35:00.486Z,78.60
2023-01-04T11:36:00.009Z,78.20
2023-01-04T11:36:59.929Z,78.60
2023-01-04T11:37:59.942Z,78.80
2023-01-04T11:38:59.857Z,78.41
2023-01-04T11:39:59.870Z,78.50
2023-01-04T11:40:59.912Z,78.60
2023-01-04T11:42:03.269Z,78.80
2023-01-04T11:42:59.893Z,78.90
2023-01-04T11:44:00.779Z,78.17
2023-01-04T11:44:59.801Z,78.67
2023-01-04T11:45:59.841Z,78.07
2023-01-04T11:46:59.814Z,78.97
2023-01-04T11:47:59.881Z,79.36
2023-01-04T11:48:59.792Z,79.86
2023-01-04T11:49:59.739Z,78.53
2023-01-04T11:50:59.814Z,79.63
2023-01-04T11:51:59.850Z,79.22
2023-01-04T11:52:59.723Z,78.92
2023-01-04T11:53:59.773Z,78.13
2023-01-04T11:54:59.730Z,76.64
2023-01-04T11:55:59.666Z,77.87
2023-01-04T11:56:59.681Z,78.07
2023-01-04T11:57:59.691Z,79.27
2023-01-04T11:58:59.681Z,79.57
2023-01-04T11:59:59.688Z,80.36
2023-01-04T12:00:59.760Z,80.96
2023-01-04T12:01:59.824Z,81.76
2023-01-04T12:03:01.578Z,80.36
2023-01-04T12:03:59.784Z,80.86
2023-01-04T12:04:59.700Z,81.90
2023-01-04T12:05:59.708Z,83.59
2023-01-04T12:06:59.662Z,81.79
2023-01-04T12:07:59.615Z,83.79
2023-01-04T12:08:59.620Z,82.29
2023-01-04T12:10:01.368Z,82.50
2023-01-04T12:10:59.683Z,83.19
2023-01-04T12:11:59.574Z,84.69
2023-01-04T12:12:59.583Z,81.00
2023-01-04T12:13:59.575Z,83.13
2023-01-04T12:14:59.549Z,81.24
2023-01-04T12:15:59.491Z,82.23
2023-01-04T12:16:59.502Z,83.13
2023-01-04T12:17:59.476Z,82.43
2023-01-04T12:18:59.465Z,81.54
2023-01-04T12:19:59.429Z,84.03
2023-01-04T12:20:59.584Z,84.93
2023-01-04T12:21:59.798Z,84.93
2023-01-04T12:22:59.441Z,84.07
2023-01-04T12:24:00.334Z,83.97
2023-01-04T12:25:01.054Z,83.67
2023-01-04T12:25:59.348Z,84.57
2023-01-04T12:26:59.415Z,85.17
2023-01-04T12:27:59.433Z,84.07
2023-01-04T12:28:59.430Z,86.72
2023-01-04T12:29:59.385Z,83.53
2023-01-04T12:30:59.447Z,84.53
2023-01-04T12:31:59.305Z,84.23
2023-01-04T12:32:59.372Z,84.83
2023-01-04T12:33:59.330Z,83.19
2023-01-04T12:35:00.253Z,81.70
2023-01-04T12:35:59.325Z,84.55
2023-01-04T12:37:04.797Z,83.55
2023-01-04T12:37:59.232Z,80.66
2023-01-04T12:38:59.252Z,80.52
2023-01-04T12:39:59.255Z,78.43
2023-01-04T12:40:59.258Z,80.52
2023-01-04T12:41:59.232Z,78.23
2023-01-04T12:42:59.227Z,78.92
2023-01-04T12:43:59.252Z,79.49
2023-01-04T12:44:59.180Z,81.18
2023-01-04T12:45:59.291Z,79.99
2023-01-04T12:46:59.312Z,79.58
2023-01-04T12:47:59.159Z,78.75
2023-01-04T12:48:59.212Z,79.94
2023-01-04T12:49:59.120Z,80.65
2023-01-04T12:51:14.650Z,78.85
2023-01-04T12:52:20.978Z,75.37
2023-01-04T12:53:20.075Z,77.76
2023-01-04T12:53:59.099Z,76.72